sensor_id;sensor_type;location;lat;lon;timestamp;temperature;humidity
2212;DHT22;48849;48.758;9.158;2023-05-07T00:01:50;17.20;99.90
2212;DHT22;48849;48.758;9.158;2023-05-07T00:04:19;17.10;99.90
2212;DHT22;48849;48.758;9.158;2023-05-07T00:07:04;17.20;99.90
2212;DHT22;48849;48.758;9.158;2023-05-07T00:09:32;17.20;99.90
2212;DHT22;48849;48.758;9.158;2023-05-07T00:12:06;17.20;99.90
2212;DHT22;48849;48.758;9.158;2023-05-07T00:14:55;17.20;99.90
2212;DHT22;48849;48.758;9.158;2023-05-07T00:17:32;17.20;99.90
2212;DHT22;48849;48.758;9.158;2023-05-07T00:20:02;17.20;99.90
2212;DHT22;48849;48.758;9.158;2023-05-07T00:22:34;17.20;99.90
2212;DHT22;48849;48.758;9.158;2023-05-07T00:25:02;17.20;99.90
2212;DHT22;48849;48.758;9.158;2023-05-07T00:27:30;17.20;99.90
2212;DHT22;48849;48.758;9.158;2023-05-07T00:29:56;17.10;99.90
2212;DHT22;48849;48.758;9.158;2023-05-07T00:32:23;17.10;99.90
2212;DHT22;48849;48.758;9.158;2023-05-07T00:34:52;17.20;99.90
2212;DHT22;48849;48.758;9.158;2023-05-07T00:37:23;17.10;99.90
2212;DHT22;48849;48.758;9.158;2023-05-07T00:39:50;17.10;99.90
2212;DHT22;48849;48.758;9.158;2023-05-07T00:42:19;17.10;99.90
2212;DHT22;48849;48.758;9.158;2023-05-07T00:44:47;17.00;99.90
2212;DHT22;48849;48.758;9.158;2023-05-07T00:47:18;17.00;99.90
2212;DHT22;48849;48.758;9.158;2023-05-07T00:50:10;16.90;99.90
2212;DHT22;48849;48.758;9.158;2023-05-07T00:52:49;17.00;99.90
2212;DHT22;48849;48.758;9.158;2023-05-07T00:55:22;16.90;99.90
2212;DHT22;48849;48.758;9.158;2023-05-07T00:57:55;16.90;99.90
2212;DHT22;48849;48.758;9.158;2023-05-07T01:00:47;16.90;99.90
2212;DHT22;48849;48.758;9.158;2023-05-07T01:03:15;16.90;99.90
2212;DHT22;48849;48.758;9.158;2023-05-07T01:05:54;16.90;99.90
2212;DHT22;48849;48.758;9.158;2023-05-07T01:08:42;16.90;99.90
2212;DHT22;48849;48.758;9.158;2023-05-07T01:11:33;17.00;99.90
2212;DHT22;48849;48.758;9.158;2023-05-07T01:14:10;16.90;99.90
2212;DHT22;48849;48.758;9.158;2023-05-07T01:16:58;16.90;99.90
2212;DHT22;48849;48.758;9.158;2023-05-07T01:19:39;16.90;99.90
2212;DHT22;48849;48.758;9.158;2023-05-07T01:22:35;16.90;99.90
2212;DHT22;48849;48.758;9.158;2023-05-07T01:25:16;16.90;99.90
2212;DHT22;48849;48.758;9.158;2023-05-07T01:27:48;16.90;99.90
2212;DHT22;48849;48.758;9.158;2023-05-07T01:30:19;16.90;99.90
2212;DHT22;48849;48.758;9.158;2023-05-07T01:33:00;16.80;99.90
2212;DHT22;48849;48.758;9.158;2023-05-07T01:37:16;16.80;99.90
2212;DHT22;48849;48.758;9.158;2023-05-07T01:39:53;16.70;99.90
2212;DHT22;48849;48.758;9.158;2023-05-07T01:42:27;16.80;99.90
2212;DHT22;48849;48.758;9.158;2023-05-07T01:44:57;16.80;99.90
2212;DHT22;48849;48.758;9.158;2023-05-07T01:47:27;16.80;99.90
2212;DHT22;48849;48.758;9.158;2023-05-07T01:50:04;16.80;99.90
2212;DHT22;48849;48.758;9.158;2023-05-07T01:52:41;16.80;99.90
2212;DHT22;48849;48.758;9.158;2023-05-07T01:55:23;16.70;99.90
2212;DHT22;48849;48.758;9.158;2023-05-07T01:57:54;16.80;99.90
2212;DHT22;48849;48.758;9.158;2023-05-07T02:00:31;16.70;99.90
2212;DHT22;48849;48.758;9.158;2023-05-07T02:03:01;16.70;99.90
2212;DHT22;48849;48.758;9.158;2023-05-07T02:05:31;16.70;99.90
2212;DHT22;48849;48.758;9.158;2023-05-07T02:08:05;16.70;99.90
2212;DHT22;48849;48.758;9.158;2023-05-07T02:10:45;16.70;99.90
2212;DHT22;48849;48.758;9.158;2023-05-07T02:13:12;16.70;99.90
2212;DHT22;48849;48.758;9.158;2023-05-07T02:15:40;16.70;99.90
2212;DHT22;48849;48.758;9.158;2023-05-07T02:18:12;16.70;99.90
2212;DHT22;48849;48.758;9.158;2023-05-07T02:20:42;16.60;99.90
2212;DHT22;48849;48.758;9.158;2023-05-07T02:23:17;16.50;99.90
2212;DHT22;48849;48.758;9.158;2023-05-07T02:25:48;16.60;99.90
2212;DHT22;48849;48.758;9.158;2023-05-07T02:28:21;16.50;99.90
2212;DHT22;48849;48.758;9.158;2023-05-07T02:30:49;16.60;99.90
2212;DHT22;48849;48.758;9.158;2023-05-07T02:33:18;16.60;99.90
2212;DHT22;48849;48.758;9.158;2023-05-07T02:35:45;16.60;99.90
2212;DHT22;48849;48.758;9.158;2023-05-07T02:38:13;16.60;99.90
2212;DHT22;48849;48.758;9.158;2023-05-07T02:40:40;16.60;99.90
2212;DHT22;48849;48.758;9.158;2023-05-07T02:43:07;16.60;99.90
2212;DHT22;48849;48.758;9.158;2023-05-07T02:45:34;16.60;99.90
2212;DHT22;48849;48.758;9.158;2023-05-07T02:48:04;16.60;99.90
2212;DHT22;48849;48.758;9.158;2023-05-07T02:50:31;16.60;99.90
2212;DHT22;48849;48.758;9.158;2023-05-07T02:52:58;16.50;99.90
2212;DHT22;48849;48.758;9.158;2023-05-07T02:55:26;16.50;99.90
2212;DHT22;48849;48.758;9.158;2023-05-07T02:57:53;16.40;99.90
2212;DHT22;48849;48.758;9.158;2023-05-07T03:00:21;16.50;99.90
2212;DHT22;48849;48.758;9.158;2023-05-07T03:02:48;16.50;99.90
2212;DHT22;48849;48.758;9.158;2023-05-07T03:05:14;16.40;99.90
2212;DHT22;48849;48.758;9.158;2023-05-07T03:07:41;16.50;99.90
2212;DHT22;48849;48.758;9.158;2023-05-07T03:10:10;16.50;99.90
2212;DHT22;48849;48.758;9.158;2023-05-07T03:12:38;16.50;99.90
2212;DHT22;48849;48.758;9.158;2023-05-07T03:15:06;16.40;99.90
2212;DHT22;48849;48.758;9.158;2023-05-07T03:17:33;16.40;99.90
2212;DHT22;48849;48.758;9.158;2023-05-07T03:20:00;16.40;99.90
2212;DHT22;48849;48.758;9.158;2023-05-07T03:22:27;16.40;99.90
2212;DHT22;48849;48.758;9.158;2023-05-07T03:24:54;16.40;99.90
2212;DHT22;48849;48.758;9.158;2023-05-07T03:27:23;16.30;99.90
2212;DHT22;48849;48.758;9.158;2023-05-07T03:29:52;16.30;99.90
2212;DHT22;48849;48.758;9.158;2023-05-07T03:32:18;16.30;99.90
2212;DHT22;48849;48.758;9.158;2023-05-07T03:34:45;16.30;99.90
2212;DHT22;48849;48.758;9.158;2023-05-07T03:37:12;16.30;99.90
2212;DHT22;48849;48.758;9.158;2023-05-07T03:39:39;16.30;99.90
2212;DHT22;48849;48.758;9.158;2023-05-07T03:42:05;16.20;99.90
2212;DHT22;48849;48.758;9.158;2023-05-07T03:44:32;16.20;99.90
2212;DHT22;48849;48.758;9.158;2023-05-07T03:47:00;16.20;99.90
2212;DHT22;48849;48.758;9.158;2023-05-07T03:49:38;16.20;99.90
2212;DHT22;48849;48.758;9.158;2023-05-07T03:52:09;16.20;99.90
2212;DHT22;48849;48.758;9.158;2023-05-07T03:54:39;16.20;99.90
2212;DHT22;48849;48.758;9.158;2023-05-07T03:57:11;16.10;99.90
2212;DHT22;48849;48.758;9.158;2023-05-07T03:59:45;16.10;99.90
2212;DHT22;48849;48.758;9.158;2023-05-07T04:02:14;16.10;99.90
2212;DHT22;48849;48.758;9.158;2023-05-07T04:04:51;16.10;99.90
2212;DHT22;48849;48.758;9.158;2023-05-07T04:07:19;16.10;99.90
2212;DHT22;48849;48.758;9.158;2023-05-07T04:09:46;16.10;99.90
2212;DHT22;48849;48.758;9.158;2023-05-07T04:12:16;16.10;99.90
2212;DHT22;48849;48.758;9.158;2023-05-07T04:14:43;16.10;99.90
2212;DHT22;48849;48.758;9.158;2023-05-07T04:17:19;16.10;99.90
2212;DHT22;48849;48.758;9.158;2023-05-07T04:19:47;16.00;99.90
2212;DHT22;48849;48.758;9.158;2023-05-07T04:22:14;16.00;99.90
2212;DHT22;48849;48.758;9.158;2023-05-07T04:24:48;16.00;99.90
2212;DHT22;48849;48.758;9.158;2023-05-07T04:27:20;16.00;99.90
2212;DHT22;48849;48.758;9.158;2023-05-07T04:29:47;16.00;99.90
2212;DHT22;48849;48.758;9.158;2023-05-07T04:32:16;16.00;99.90
2212;DHT22;48849;48.758;9.158;2023-05-07T04:34:47;16.00;99.90
2212;DHT22;48849;48.758;9.158;2023-05-07T04:37:15;15.90;99.90
2212;DHT22;48849;48.758;9.158;2023-05-07T04:39:44;15.90;99.90
2212;DHT22;48849;48.758;9.158;2023-05-07T04:42:14;15.90;99.90
2212;DHT22;48849;48.758;9.158;2023-05-07T04:44:43;15.90;99.90
2212;DHT22;48849;48.758;9.158;2023-05-07T04:47:10;15.90;99.90
2212;DHT22;48849;48.758;9.158;2023-05-07T04:49:41;15.90;99.90
2212;DHT22;48849;48.758;9.158;2023-05-07T04:52:08;16.00;99.90
2212;DHT22;48849;48.758;9.158;2023-05-07T04:54:35;16.00;99.90
2212;DHT22;48849;48.758;9.158;2023-05-07T04:57:03;15.90;99.90
2212;DHT22;48849;48.758;9.158;2023-05-07T04:59:30;15.90;99.90
2212;DHT22;48849;48.758;9.158;2023-05-07T05:01:57;16.00;99.90
2212;DHT22;48849;48.758;9.158;2023-05-07T05:04:23;16.00;99.90
2212;DHT22;48849;48.758;9.158;2023-05-07T05:06:52;15.90;99.90
2212;DHT22;48849;48.758;9.158;2023-05-07T05:09:19;15.90;99.90
2212;DHT22;48849;48.758;9.158;2023-05-07T05:11:45;15.90;99.90
2212;DHT22;48849;48.758;9.158;2023-05-07T05:14:12;15.90;99.90
2212;DHT22;48849;48.758;9.158;2023-05-07T05:16:39;15.90;99.90
2212;DHT22;48849;48.758;9.158;2023-05-07T05:19:05;15.80;99.90
2212;DHT22;48849;48.758;9.158;2023-05-07T05:21:32;15.90;99.90
2212;DHT22;48849;48.758;9.158;2023-05-07T05:24:00;15.80;99.90
2212;DHT22;48849;48.758;9.158;2023-05-07T05:26:27;15.80;99.90
2212;DHT22;48849;48.758;9.158;2023-05-07T05:28:54;15.90;99.90
2212;DHT22;48849;48.758;9.158;2023-05-07T05:31:20;15.90;99.90
2212;DHT22;48849;48.758;9.158;2023-05-07T05:33:47;15.80;99.90
2212;DHT22;48849;48.758;9.158;2023-05-07T05:36:14;15.80;99.90
2212;DHT22;48849;48.758;9.158;2023-05-07T05:38:41;15.80;99.90
2212;DHT22;48849;48.758;9.158;2023-05-07T05:41:09;15.80;99.90
2212;DHT22;48849;48.758;9.158;2023-05-07T05:43:35;15.80;99.90
2212;DHT22;48849;48.758;9.158;2023-05-07T05:46:02;15.90;99.90
2212;DHT22;48849;48.758;9.158;2023-05-07T05:48:30;16.00;99.90
2212;DHT22;48849;48.758;9.158;2023-05-07T05:50:56;15.90;99.90
2212;DHT22;48849;48.758;9.158;2023-05-07T05:53:23;15.90;99.90
2212;DHT22;48849;48.758;9.158;2023-05-07T05:55:50;15.90;99.90
2212;DHT22;48849;48.758;9.158;2023-05-07T05:58:18;15.80;99.90
2212;DHT22;48849;48.758;9.158;2023-05-07T06:00:46;15.90;99.90
2212;DHT22;48849;48.758;9.158;2023-05-07T06:03:13;15.90;99.90
2212;DHT22;48849;48.758;9.158;2023-05-07T06:05:40;16.00;99.90
2212;DHT22;48849;48.758;9.158;2023-05-07T06:08:07;16.00;99.90
2212;DHT22;48849;48.758;9.158;2023-05-07T06:10:33;16.00;99.90
2212;DHT22;48849;48.758;9.158;2023-05-07T06:13:01;16.10;99.90
2212;DHT22;48849;48.758;9.158;2023-05-07T06:15:33;16.20;99.90
2212;DHT22;48849;48.758;9.158;2023-05-07T06:18:00;16.30;99.90
2212;DHT22;48849;48.758;9.158;2023-05-07T06:20:26;16.40;99.90
2212;DHT22;48849;48.758;9.158;2023-05-07T06:22:53;16.40;99.90
2212;DHT22;48849;48.758;9.158;2023-05-07T06:25:25;16.50;99.90
2212;DHT22;48849;48.758;9.158;2023-05-07T06:27:53;16.50;99.90
2212;DHT22;48849;48.758;9.158;2023-05-07T06:30:20;16.50;99.90
2212;DHT22;48849;48.758;9.158;2023-05-07T06:32:51;16.60;99.90
2212;DHT22;48849;48.758;9.158;2023-05-07T06:35:23;16.60;99.90
2212;DHT22;48849;48.758;9.158;2023-05-07T06:37:52;16.60;99.90
2212;DHT22;48849;48.758;9.158;2023-05-07T06:40:19;16.70;99.90
2212;DHT22;48849;48.758;9.158;2023-05-07T06:42:46;16.70;99.90
2212;DHT22;48849;48.758;9.158;2023-05-07T06:45:13;16.70;99.90
2212;DHT22;48849;48.758;9.158;2023-05-07T06:47:40;16.70;99.90
2212;DHT22;48849;48.758;9.158;2023-05-07T06:50:11;16.80;99.90
2212;DHT22;48849;48.758;9.158;2023-05-07T06:52:46;16.70;99.90
2212;DHT22;48849;48.758;9.158;2023-05-07T06:55:18;16.80;99.90
2212;DHT22;48849;48.758;9.158;2023-05-07T06:57:49;16.70;99.90
2212;DHT22;48849;48.758;9.158;2023-05-07T07:00:45;16.80;99.90
2212;DHT22;48849;48.758;9.158;2023-05-07T07:03:39;16.80;99.90
2212;DHT22;48849;48.758;9.158;2023-05-07T07:06:15;16.90;99.90
2212;DHT22;48849;48.758;9.158;2023-05-07T07:08:45;16.90;99.90
2212;DHT22;48849;48.758;9.158;2023-05-07T07:11:23;16.90;99.90
2212;DHT22;48849;48.758;9.158;2023-05-07T07:16:37;17.00;99.90
2212;DHT22;48849;48.758;9.158;2023-05-07T07:19:08;17.00;99.90
2212;DHT22;48849;48.758;9.158;2023-05-07T07:21:38;17.00;99.90
2212;DHT22;48849;48.758;9.158;2023-05-07T07:24:23;17.00;99.90
2212;DHT22;48849;48.758;9.158;2023-05-07T07:30:09;17.00;99.90
2212;DHT22;48849;48.758;9.158;2023-05-07T07:32:49;17.10;99.90
2212;DHT22;48849;48.758;9.158;2023-05-07T07:35:30;17.10;99.90
2212;DHT22;48849;48.758;9.158;2023-05-07T07:37:59;17.10;99.90
2212;DHT22;48849;48.758;9.158;2023-05-07T07:43:52;17.10;99.90
2212;DHT22;48849;48.758;9.158;2023-05-07T07:46:19;17.20;99.90
2212;DHT22;48849;48.758;9.158;2023-05-07T07:48:46;17.20;99.90
2212;DHT22;48849;48.758;9.158;2023-05-07T07:51:13;17.30;99.90
2212;DHT22;48849;48.758;9.158;2023-05-07T07:53:41;17.30;99.90
2212;DHT22;48849;48.758;9.158;2023-05-07T07:56:08;17.40;99.90
2212;DHT22;48849;48.758;9.158;2023-05-07T07:58:35;17.40;99.90
2212;DHT22;48849;48.758;9.158;2023-05-07T08:01:28;17.40;99.90
2212;DHT22;48849;48.758;9.158;2023-05-07T08:08:13;17.50;99.90
2212;DHT22;48849;48.758;9.158;2023-05-07T08:10:47;17.60;99.90
2212;DHT22;48849;48.758;9.158;2023-05-07T08:13:15;17.60;99.90
2212;DHT22;48849;48.758;9.158;2023-05-07T08:15:43;17.60;99.90
2212;DHT22;48849;48.758;9.158;2023-05-07T08:18:12;17.70;99.90
2212;DHT22;48849;48.758;9.158;2023-05-07T08:20:41;17.70;99.90
2212;DHT22;48849;48.758;9.158;2023-05-07T08:23:08;17.70;99.90
2212;DHT22;48849;48.758;9.158;2023-05-07T08:25:37;17.80;99.90
2212;DHT22;48849;48.758;9.158;2023-05-07T08:28:07;17.80;99.90
2212;DHT22;48849;48.758;9.158;2023-05-07T08:30:34;17.80;99.90
2212;DHT22;48849;48.758;9.158;2023-05-07T08:33:01;17.90;99.90
2212;DHT22;48849;48.758;9.158;2023-05-07T08:35:29;18.00;99.90
2212;DHT22;48849;48.758;9.158;2023-05-07T08:37:56;18.10;99.90
2212;DHT22;48849;48.758;9.158;2023-05-07T08:40:27;18.10;99.90
2212;DHT22;48849;48.758;9.158;2023-05-07T08:42:56;18.20;99.90
2212;DHT22;48849;48.758;9.158;2023-05-07T08:45:43;18.30;99.90
2212;DHT22;48849;48.758;9.158;2023-05-07T08:48:15;18.30;99.90
2212;DHT22;48849;48.758;9.158;2023-05-07T08:50:42;18.40;99.90
2212;DHT22;48849;48.758;9.158;2023-05-07T08:53:09;18.50;99.90
2212;DHT22;48849;48.758;9.158;2023-05-07T08:55:35;18.60;99.90
2212;DHT22;48849;48.758;9.158;2023-05-07T08:58:03;18.60;99.90
2212;DHT22;48849;48.758;9.158;2023-05-07T09:00:29;18.60;99.90
2212;DHT22;48849;48.758;9.158;2023-05-07T09:02:57;18.70;99.90
2212;DHT22;48849;48.758;9.158;2023-05-07T09:05:24;18.70;99.90
2212;DHT22;48849;48.758;9.158;2023-05-07T09:07:51;18.70;99.90
2212;DHT22;48849;48.758;9.158;2023-05-07T09:10:18;18.70;99.90
2212;DHT22;48849;48.758;9.158;2023-05-07T09:12:46;18.80;99.90
2212;DHT22;48849;48.758;9.158;2023-05-07T09:15:13;18.80;99.90
2212;DHT22;48849;48.758;9.158;2023-05-07T09:17:40;18.80;99.90
2212;DHT22;48849;48.758;9.158;2023-05-07T09:20:09;18.80;99.90
2212;DHT22;48849;48.758;9.158;2023-05-07T09:22:37;18.80;99.90
2212;DHT22;48849;48.758;9.158;2023-05-07T09:25:05;18.80;99.90
2212;DHT22;48849;48.758;9.158;2023-05-07T09:27:32;18.80;99.90
2212;DHT22;48849;48.758;9.158;2023-05-07T09:29:58;18.80;99.90
2212;DHT22;48849;48.758;9.158;2023-05-07T09:32:25;18.90;99.90
2212;DHT22;48849;48.758;9.158;2023-05-07T09:34:53;18.90;99.90
2212;DHT22;48849;48.758;9.158;2023-05-07T09:37:27;18.90;99.90
2212;DHT22;48849;48.758;9.158;2023-05-07T09:39:56;18.90;99.90
2212;DHT22;48849;48.758;9.158;2023-05-07T09:42:29;19.00;99.90
2212;DHT22;48849;48.758;9.158;2023-05-07T09:44:56;19.00;99.90
2212;DHT22;48849;48.758;9.158;2023-05-07T09:47:24;19.00;99.90
2212;DHT22;48849;48.758;9.158;2023-05-07T09:49:56;19.00;99.90
2212;DHT22;48849;48.758;9.158;2023-05-07T09:52:24;19.00;99.90
2212;DHT22;48849;48.758;9.158;2023-05-07T09:54:57;19.00;99.90
2212;DHT22;48849;48.758;9.158;2023-05-07T09:57:26;19.10;99.90
2212;DHT22;48849;48.758;9.158;2023-05-07T09:59:54;19.10;99.90
2212;DHT22;48849;48.758;9.158;2023-05-07T10:02:23;19.20;99.90
2212;DHT22;48849;48.758;9.158;2023-05-07T10:04:52;19.20;99.90
2212;DHT22;48849;48.758;9.158;2023-05-07T10:07:21;19.20;99.90
2212;DHT22;48849;48.758;9.158;2023-05-07T10:09:49;19.30;99.90
2212;DHT22;48849;48.758;9.158;2023-05-07T10:12:17;19.30;99.90
2212;DHT22;48849;48.758;9.158;2023-05-07T10:14:45;19.40;99.90
2212;DHT22;48849;48.758;9.158;2023-05-07T10:17:13;19.40;99.90
2212;DHT22;48849;48.758;9.158;2023-05-07T10:19:44;19.40;99.90
2212;DHT22;48849;48.758;9.158;2023-05-07T10:22:11;19.40;99.90
2212;DHT22;48849;48.758;9.158;2023-05-07T10:24:40;19.50;99.90
2212;DHT22;48849;48.758;9.158;2023-05-07T10:27:09;19.50;99.90
2212;DHT22;48849;48.758;9.158;2023-05-07T10:29:44;19.60;99.90
2212;DHT22;48849;48.758;9.158;2023-05-07T10:32:25;19.60;99.90
2212;DHT22;48849;48.758;9.158;2023-05-07T10:34:56;19.70;99.90
2212;DHT22;48849;48.758;9.158;2023-05-07T10:37:24;19.80;99.90
2212;DHT22;48849;48.758;9.158;2023-05-07T10:39:51;19.80;99.90
2212;DHT22;48849;48.758;9.158;2023-05-07T10:42:18;20.00;99.90
2212;DHT22;48849;48.758;9.158;2023-05-07T10:44:46;20.10;99.90
2212;DHT22;48849;48.758;9.158;2023-05-07T10:47:15;20.20;99.90
2212;DHT22;48849;48.758;9.158;2023-05-07T10:52:43;20.50;99.90
2212;DHT22;48849;48.758;9.158;2023-05-07T10:55:20;20.50;99.90
2212;DHT22;48849;48.758;9.158;2023-05-07T10:57:53;20.60;99.90
2212;DHT22;48849;48.758;9.158;2023-05-07T11:00:55;20.70;99.90
2212;DHT22;48849;48.758;9.158;2023-05-07T11:03:22;20.80;99.90
2212;DHT22;48849;48.758;9.158;2023-05-07T11:06:09;20.90;99.90
2212;DHT22;48849;48.758;9.158;2023-05-07T11:15:43;21.00;99.90
2212;DHT22;48849;48.758;9.158;2023-05-07T11:18:51;20.90;99.90
2212;DHT22;48849;48.758;9.158;2023-05-07T11:21:34;20.90;99.90
2212;DHT22;48849;48.758;9.158;2023-05-07T11:24:04;20.80;99.90
2212;DHT22;48849;48.758;9.158;2023-05-07T11:26:47;20.80;99.90
2212;DHT22;48849;48.758;9.158;2023-05-07T11:29:16;20.70;99.90
2212;DHT22;48849;48.758;9.158;2023-05-07T11:31:44;20.60;99.90
2212;DHT22;48849;48.758;9.158;2023-05-07T11:34:21;20.60;99.90
2212;DHT22;48849;48.758;9.158;2023-05-07T11:36:48;20.50;99.90
2212;DHT22;48849;48.758;9.158;2023-05-07T11:39:31;20.40;99.90
2212;DHT22;48849;48.758;9.158;2023-05-07T11:42:01;20.40;99.90
2212;DHT22;48849;48.758;9.158;2023-05-07T11:44:42;20.30;99.90
2212;DHT22;48849;48.758;9.158;2023-05-07T11:47:16;20.30;99.90
2212;DHT22;48849;48.758;9.158;2023-05-07T11:49:50;20.20;99.90
2212;DHT22;48849;48.758;9.158;2023-05-07T11:52:49;20.10;99.90
2212;DHT22;48849;48.758;9.158;2023-05-07T11:55:28;20.10;99.90
2212;DHT22;48849;48.758;9.158;2023-05-07T11:57:58;20.00;99.90
2212;DHT22;48849;48.758;9.158;2023-05-07T12:00:51;20.00;99.90
2212;DHT22;48849;48.758;9.158;2023-05-07T12:03:25;19.90;99.90
2212;DHT22;48849;48.758;9.158;2023-05-07T12:06:05;19.80;99.90
2212;DHT22;48849;48.758;9.158;2023-05-07T12:08:44;19.80;99.90
2212;DHT22;48849;48.758;9.158;2023-05-07T12:11:53;19.70;99.90
2212;DHT22;48849;48.758;9.158;2023-05-07T12:15:09;19.80;99.90
2212;DHT22;48849;48.758;9.158;2023-05-07T12:41:16;19.50;99.90
2212;DHT22;48849;48.758;9.158;2023-05-07T12:43:44;19.40;99.90
2212;DHT22;48849;48.758;9.158;2023-05-07T12:46:13;19.30;99.90
2212;DHT22;48849;48.758;9.158;2023-05-07T12:52:05;18.60;99.90
2212;DHT22;48849;48.758;9.158;2023-05-07T13:09:42;16.80;99.90
2212;DHT22;48849;48.758;9.158;2023-05-07T13:15:26;16.90;99.90
2212;DHT22;48849;48.758;9.158;2023-05-07T13:18:11;17.00;99.90
2212;DHT22;48849;48.758;9.158;2023-05-07T13:20:38;17.00;99.90
2212;DHT22;48849;48.758;9.158;2023-05-07T13:23:11;17.00;99.90
2212;DHT22;48849;48.758;9.158;2023-05-07T13:25:43;17.00;99.90
2212;DHT22;48849;48.758;9.158;2023-05-07T13:28:13;17.00;99.90
2212;DHT22;48849;48.758;9.158;2023-05-07T13:30:42;17.10;99.90
2212;DHT22;48849;48.758;9.158;2023-05-07T13:33:10;17.20;99.90
2212;DHT22;48849;48.758;9.158;2023-05-07T13:35:37;17.20;99.90
2212;DHT22;48849;48.758;9.158;2023-05-07T13:38:04;17.20;99.90
2212;DHT22;48849;48.758;9.158;2023-05-07T13:40:31;17.20;99.90
2212;DHT22;48849;48.758;9.158;2023-05-07T13:43:00;17.20;99.90
2212;DHT22;48849;48.758;9.158;2023-05-07T13:45:32;17.30;99.90
2212;DHT22;48849;48.758;9.158;2023-05-07T13:48:01;17.20;99.90
2212;DHT22;48849;48.758;9.158;2023-05-07T13:50:32;17.20;99.90
2212;DHT22;48849;48.758;9.158;2023-05-07T13:53:04;17.20;99.90
2212;DHT22;48849;48.758;9.158;2023-05-07T13:58:35;17.30;99.90
2212;DHT22;48849;48.758;9.158;2023-05-07T14:01:08;17.30;99.90
2212;DHT22;48849;48.758;9.158;2023-05-07T14:06:55;17.30;99.90
2212;DHT22;48849;48.758;9.158;2023-05-07T14:09:34;17.30;99.90
2212;DHT22;48849;48.758;9.158;2023-05-07T14:14:59;17.30;99.90
2212;DHT22;48849;48.758;9.158;2023-05-07T14:17:52;17.40;99.90
2212;DHT22;48849;48.758;9.158;2023-05-07T14:21:04;17.70;99.90
2212;DHT22;48849;48.758;9.158;2023-05-07T14:27:10;17.30;99.90
2212;DHT22;48849;48.758;9.158;2023-05-07T14:29:37;17.50;99.90
2212;DHT22;48849;48.758;9.158;2023-05-07T14:35:29;17.50;99.90
2212;DHT22;48849;48.758;9.158;2023-05-07T14:38:00;17.20;99.90
2212;DHT22;48849;48.758;9.158;2023-05-07T14:40:48;17.90;99.90
2212;DHT22;48849;48.758;9.158;2023-05-07T14:43:17;17.60;99.90
2212;DHT22;48849;48.758;9.158;2023-05-07T14:45:52;17.50;99.90
2212;DHT22;48849;48.758;9.158;2023-05-07T14:48:39;17.60;99.90
2212;DHT22;48849;48.758;9.158;2023-05-07T14:51:06;17.60;99.90
2212;DHT22;48849;48.758;9.158;2023-05-07T14:53:32;17.60;99.90
2212;DHT22;48849;48.758;9.158;2023-05-07T14:55:59;17.50;99.90
2212;DHT22;48849;48.758;9.158;2023-05-07T14:58:26;17.60;99.90
2212;DHT22;48849;48.758;9.158;2023-05-07T15:00:53;18.30;99.90
2212;DHT22;48849;48.758;9.158;2023-05-07T15:03:20;18.00;99.90
2212;DHT22;48849;48.758;9.158;2023-05-07T15:05:48;17.50;99.90
2212;DHT22;48849;48.758;9.158;2023-05-07T15:08:16;17.60;99.90
2212;DHT22;48849;48.758;9.158;2023-05-07T15:10:43;17.90;99.90
2212;DHT22;48849;48.758;9.158;2023-05-07T15:13:11;17.50;99.90
2212;DHT22;48849;48.758;9.158;2023-05-07T15:15:38;18.20;99.90
2212;DHT22;48849;48.758;9.158;2023-05-07T15:18:05;17.60;99.90
2212;DHT22;48849;48.758;9.158;2023-05-07T15:20:32;17.60;99.90
2212;DHT22;48849;48.758;9.158;2023-05-07T15:23:00;17.60;99.90
2212;DHT22;48849;48.758;9.158;2023-05-07T15:25:28;17.60;99.90
2212;DHT22;48849;48.758;9.158;2023-05-07T15:27:56;17.60;99.90
2212;DHT22;48849;48.758;9.158;2023-05-07T15:30:23;17.60;99.90
2212;DHT22;48849;48.758;9.158;2023-05-07T15:32:50;17.70;99.90
2212;DHT22;48849;48.758;9.158;2023-05-07T15:35:17;17.70;99.90
2212;DHT22;48849;48.758;9.158;2023-05-07T15:37:47;17.70;99.90
2212;DHT22;48849;48.758;9.158;2023-05-07T15:40:16;18.40;99.90
2212;DHT22;48849;48.758;9.158;2023-05-07T15:42:44;17.70;99.90
2212;DHT22;48849;48.758;9.158;2023-05-07T15:45:11;17.70;99.90
2212;DHT22;48849;48.758;9.158;2023-05-07T15:47:38;17.80;99.90
2212;DHT22;48849;48.758;9.158;2023-05-07T15:50:05;17.70;99.90
2212;DHT22;48849;48.758;9.158;2023-05-07T15:52:32;17.70;99.90
2212;DHT22;48849;48.758;9.158;2023-05-07T15:54:59;18.20;99.90
2212;DHT22;48849;48.758;9.158;2023-05-07T15:57:29;17.70;99.90
2212;DHT22;48849;48.758;9.158;2023-05-07T15:59:57;18.10;99.90
2212;DHT22;48849;48.758;9.158;2023-05-07T16:02:24;17.60;99.90
2212;DHT22;48849;48.758;9.158;2023-05-07T16:04:51;17.60;99.90
2212;DHT22;48849;48.758;9.158;2023-05-07T16:07:17;17.50;99.90
2212;DHT22;48849;48.758;9.158;2023-05-07T16:09:45;17.60;99.90
2212;DHT22;48849;48.758;9.158;2023-05-07T16:12:11;17.50;99.90
2212;DHT22;48849;48.758;9.158;2023-05-07T16:14:40;17.50;99.90
2212;DHT22;48849;48.758;9.158;2023-05-07T16:17:07;17.90;99.90
2212;DHT22;48849;48.758;9.158;2023-05-07T16:19:34;17.50;99.90
2212;DHT22;48849;48.758;9.158;2023-05-07T16:22:01;17.70;99.90
2212;DHT22;48849;48.758;9.158;2023-05-07T16:24:28;17.60;99.90
2212;DHT22;48849;48.758;9.158;2023-05-07T16:26:55;18.20;99.90
2212;DHT22;48849;48.758;9.158;2023-05-07T16:29:21;17.60;99.90
2212;DHT22;48849;48.758;9.158;2023-05-07T16:31:50;17.60;99.90
2212;DHT22;48849;48.758;9.158;2023-05-07T16:34:16;17.60;99.90
2212;DHT22;48849;48.758;9.158;2023-05-07T16:36:43;17.60;99.90
2212;DHT22;48849;48.758;9.158;2023-05-07T16:39:10;18.10;99.90
2212;DHT22;48849;48.758;9.158;2023-05-07T16:41:37;17.70;99.90
2212;DHT22;48849;48.758;9.158;2023-05-07T16:44:04;17.70;99.90
2212;DHT22;48849;48.758;9.158;2023-05-07T16:46:30;17.60;99.90
2212;DHT22;48849;48.758;9.158;2023-05-07T16:48:59;17.60;99.90
2212;DHT22;48849;48.758;9.158;2023-05-07T16:51:25;18.20;99.90
2212;DHT22;48849;48.758;9.158;2023-05-07T16:53:53;18.00;99.90
2212;DHT22;48849;48.758;9.158;2023-05-07T16:56:23;17.70;99.90
2212;DHT22;48849;48.758;9.158;2023-05-07T16:58:50;17.60;99.90
2212;DHT22;48849;48.758;9.158;2023-05-07T17:01:46;17.60;99.90
2212;DHT22;48849;48.758;9.158;2023-05-07T17:07:16;17.60;99.90
2212;DHT22;48849;48.758;9.158;2023-05-07T17:13:09;17.60;99.90
2212;DHT22;48849;48.758;9.158;2023-05-07T17:15:38;18.10;99.90
2212;DHT22;48849;48.758;9.158;2023-05-07T17:18:42;17.60;99.90
2212;DHT22;48849;48.758;9.158;2023-05-07T17:21:11;17.60;99.90
2212;DHT22;48849;48.758;9.158;2023-05-07T17:23:51;17.60;99.90
2212;DHT22;48849;48.758;9.158;2023-05-07T17:26:19;17.60;99.90
2212;DHT22;48849;48.758;9.158;2023-05-07T17:28:46;18.70;99.90
2212;DHT22;48849;48.758;9.158;2023-05-07T17:31:13;17.60;99.90
2212;DHT22;48849;48.758;9.158;2023-05-07T17:34:30;17.60;99.90
2212;DHT22;48849;48.758;9.158;2023-05-07T17:36:55;18.70;99.90
2212;DHT22;48849;48.758;9.158;2023-05-07T17:39:37;17.60;99.90
2212;DHT22;48849;48.758;9.158;2023-05-07T17:42:15;17.60;99.90
2212;DHT22;48849;48.758;9.158;2023-05-07T17:44:42;17.50;99.90